createdAt,value
2019-03-19T00:00:23.400Z,82.50
2019-03-19T00:02:51.257Z,82.70
2019-03-19T00:05:19.137Z,82.60
2019-03-19T00:07:45.732Z,82.40
2019-03-19T00:10:13.335Z,82.40
2019-03-19T00:12:41.313Z,82.30
2019-03-19T00:15:10.113Z,82.20
2019-03-19T00:17:36.725Z,82.20
2019-03-19T00:20:06.916Z,82.30
2019-03-19T00:22:34.690Z,82.30
2019-03-19T00:25:01.431Z,82.50
2019-03-19T00:27:27.859Z,82.70
2019-03-19T00:29:54.476Z,82.70
2019-03-19T00:32:20.895Z,82.90
2019-03-19T00:34:47.520Z,82.70
2019-03-19T00:37:14.059Z,82.50
2019-03-19T00:39:40.906Z,82.60
2019-03-19T00:42:09.562Z,82.60
2019-03-19T00:44:36.122Z,83.50
2019-03-19T00:47:04.800Z,82.90
2019-03-19T00:49:31.208Z,83.00
2019-03-19T00:51:58.956Z,83.20
2019-03-19T00:54:25.395Z,83.40
2019-03-19T00:56:52.335Z,83.70
2019-03-19T00:59:18.896Z,84.10
2019-03-19T01:01:45.860Z,84.40
2019-03-19T01:04:12.352Z,84.70
2019-03-19T01:06:39.132Z,85.00
2019-03-19T01:09:06.314Z,85.30
2019-03-19T01:11:33.298Z,85.60
2019-03-19T01:13:59.805Z,85.80
2019-03-19T01:16:26.324Z,86.00
2019-03-19T01:18:53.956Z,86.20
2019-03-19T01:21:20.935Z,86.10
2019-03-19T01:23:47.354Z,85.90
2019-03-19T01:26:14.243Z,85.90
2019-03-19T01:28:41.390Z,85.60
2019-03-19T01:31:07.839Z,85.60
2019-03-19T01:33:34.375Z,85.70
2019-03-19T01:36:02.286Z,85.80
2019-03-19T01:38:29.254Z,86.10
2019-03-19T01:40:55.791Z,86.50
2019-03-19T01:43:24.153Z,86.50
2019-03-19T01:45:52.397Z,86.50
2019-03-19T01:48:18.817Z,86.60
2019-03-19T01:50:45.377Z,86.60
2019-03-19T01:53:13.037Z,86.70
2019-03-19T01:55:39.851Z,86.90
2019-03-19T01:58:06.485Z,87.00
2019-03-19T02:00:33.095Z,87.40
2019-03-19T02:02:59.761Z,87.90
2019-03-19T02:05:26.283Z,88.10
2019-03-19T02:07:52.957Z,88.30
2019-03-19T02:10:20.885Z,88.30
2019-03-19T02:12:47.403Z,88.20
2019-03-19T02:15:15.324Z,88.10
2019-03-19T02:17:42.703Z,88.20
2019-03-19T02:20:11.339Z,88.20
2019-03-19T02:22:37.942Z,88.00
2019-03-19T02:25:07.824Z,88.10
2019-03-19T02:27:34.838Z,88.00
2019-03-19T02:30:01.470Z,87.70
2019-03-19T02:32:28.038Z,87.40
2019-03-19T02:34:54.662Z,87.20
2019-03-19T02:37:22.277Z,87.20
2019-03-19T02:39:48.860Z,87.20
2019-03-19T02:42:15.407Z,86.90
2019-03-19T02:44:41.907Z,86.30
2019-03-19T02:47:08.524Z,86.50
2019-03-19T02:49:36.354Z,86.50
2019-03-19T02:52:23.195Z,86.30
2019-03-19T02:54:49.830Z,86.00
2019-03-19T02:57:16.462Z,86.00
2019-03-19T02:59:42.914Z,86.20
2019-03-19T03:02:10.899Z,86.20
2019-03-19T03:04:38.733Z,86.00
2019-03-19T03:07:05.372Z,85.90
2019-03-19T03:09:32.014Z,86.00
2019-03-19T03:11:58.551Z,85.90
2019-03-19T03:14:26.297Z,86.10
2019-03-19T03:16:54.994Z,86.10
2019-03-19T03:19:21.534Z,86.10
2019-03-19T03:21:49.110Z,86.10
2019-03-19T03:24:16.067Z,86.10
2019-03-19T03:26:48.209Z,86.00
2019-03-19T03:29:10.946Z,86.10
2019-03-19T03:31:37.504Z,86.10
2019-03-19T03:34:04.540Z,86.20
2019-03-19T03:36:31.497Z,86.20
2019-03-19T03:38:59.109Z,86.30
2019-03-19T03:41:25.454Z,86.40
2019-03-19T03:43:52.079Z,86.40
2019-03-19T03:46:18.769Z,86.50
2019-03-19T03:48:45.331Z,86.60
2019-03-19T03:51:11.947Z,86.70
2019-03-19T03:53:38.527Z,86.70
2019-03-19T03:56:05.169Z,86.70
2019-03-19T03:58:33.297Z,86.70
2019-03-19T04:01:01.288Z,86.50
2019-03-19T04:03:27.876Z,86.60
2019-03-19T04:05:56.451Z,86.60
2019-03-19T04:08:22.861Z,86.70
2019-03-19T04:10:50.442Z,86.50
2019-03-19T04:13:16.955Z,86.50
2019-03-19T04:15:43.869Z,86.50
2019-03-19T04:18:10.411Z,86.60
2019-03-19T04:20:37.018Z,86.50
2019-03-19T04:23:03.889Z,86.60
2019-03-19T04:25:30.824Z,86.50
2019-03-19T04:27:57.809Z,86.70
2019-03-19T04:30:24.291Z,86.70
2019-03-19T04:32:50.776Z,86.50
2019-03-19T04:35:17.455Z,86.70
2019-03-19T04:37:43.893Z,86.70
2019-03-19T04:40:12.019Z,86.60
2019-03-19T04:42:38.966Z,86.70
2019-03-19T04:45:08.401Z,86.70
2019-03-19T04:47:34.963Z,86.80
2019-03-19T04:50:02.584Z,86.60
2019-03-19T04:52:29.106Z,87.30
2019-03-19T04:54:55.708Z,87.30
2019-03-19T04:57:26.612Z,87.50
2019-03-19T04:59:51.168Z,87.70
2019-03-19T05:02:17.696Z,87.80
2019-03-19T05:04:44.265Z,88.00
2019-03-19T05:07:11.242Z,88.10
2019-03-19T05:09:37.875Z,88.00
2019-03-19T05:12:04.488Z,87.90
2019-03-19T05:14:32.100Z,87.70
2019-03-19T05:16:58.831Z,87.40
2019-03-19T05:19:25.907Z,87.40
2019-03-19T05:21:52.362Z,87.20
2019-03-19T05:24:18.770Z,87.10
2019-03-19T05:26:45.297Z,87.10
2019-03-19T05:29:11.746Z,87.20
2019-03-19T05:31:38.287Z,87.10
2019-03-19T05:34:04.814Z,87.30
2019-03-19T05:36:31.782Z,87.00
2019-03-19T05:38:58.352Z,87.00
2019-03-19T05:41:24.745Z,86.90
2019-03-19T05:43:51.375Z,86.80
2019-03-19T05:46:19.238Z,86.80
2019-03-19T05:48:46.206Z,86.70
2019-03-19T05:51:13.153Z,86.70
2019-03-19T05:53:40.263Z,86.70
2019-03-19T05:56:06.777Z,86.40
2019-03-19T05:58:34.662Z,86.40
2019-03-19T06:01:01.119Z,86.20
2019-03-19T06:03:27.639Z,86.10
2019-03-19T06:05:54.402Z,86.00
2019-03-19T06:08:40.787Z,85.90
2019-03-19T06:11:07.383Z,85.80
2019-03-19T06:13:37.153Z,85.40
2019-03-19T06:16:06.456Z,85.10
2019-03-19T06:18:35.373Z,84.90
2019-03-19T06:21:02.831Z,84.90
2019-03-19T06:23:30.754Z,84.90
2019-03-19T06:25:57.435Z,84.50
2019-03-19T06:28:23.970Z,84.50
2019-03-19T06:30:50.742Z,84.50
2019-03-19T06:33:17.671Z,84.10
2019-03-19T06:35:44.328Z,84.00
2019-03-19T06:38:10.886Z,83.80
2019-03-19T06:40:37.562Z,83.90
2019-03-19T06:43:04.188Z,84.20
2019-03-19T06:45:30.699Z,84.50
2019-03-19T06:47:57.285Z,84.10
2019-03-19T06:50:23.943Z,84.00
2019-03-19T06:52:50.506Z,83.30
2019-03-19T06:55:20.263Z,83.40
2019-03-19T06:57:48.555Z,83.10
2019-03-19T07:00:19.862Z,83.00
2019-03-19T07:02:46.570Z,82.40
2019-03-19T07:05:15.554Z,82.00
2019-03-19T07:07:42.540Z,80.60
2019-03-19T07:10:11.956Z,80.00
2019-03-19T07:12:39.574Z,80.00
2019-03-19T07:15:14.061Z,79.60
2019-03-19T07:17:40.892Z,79.10
2019-03-19T07:20:10.758Z,79.00
2019-03-19T07:22:37.360Z,78.00
2019-03-19T07:25:06.354Z,77.30
2019-03-19T07:27:32.871Z,77.00
2019-03-19T07:29:59.411Z,77.70
2019-03-19T07:32:26.358Z,76.60
2019-03-19T07:34:52.821Z,77.00
2019-03-19T07:37:19.594Z,76.00
2019-03-19T07:39:46.579Z,74.40
2019-03-19T07:42:13.188Z,75.10
2019-03-19T07:44:39.640Z,74.60
2019-03-19T07:47:06.069Z,74.50
2019-03-19T07:49:32.642Z,74.30
2019-03-19T07:52:00.597Z,73.00
2019-03-19T07:54:26.973Z,73.10
2019-03-19T07:56:53.893Z,72.90
2019-03-19T07:59:20.662Z,73.80
2019-03-19T08:01:47.228Z,73.50
2019-03-19T08:04:15.729Z,72.30
2019-03-19T08:06:42.328Z,73.00
2019-03-19T08:09:08.803Z,73.00
2019-03-19T08:11:35.354Z,71.60
2019-03-19T08:14:01.854Z,71.00
2019-03-19T08:16:28.574Z,69.80
2019-03-19T08:18:55.141Z,69.50
2019-03-19T08:21:22.614Z,71.40
2019-03-19T08:23:49.304Z,71.20
2019-03-19T08:26:17.173Z,71.20
2019-03-19T08:28:43.553Z,72.10
2019-03-19T08:31:10.363Z,70.30
2019-03-19T08:33:36.918Z,68.70
2019-03-19T08:36:09.307Z,68.90
2019-03-19T08:38:32.013Z,68.30
2019-03-19T08:40:58.538Z,68.20
2019-03-19T08:43:25.177Z,68.50
2019-03-19T08:45:51.654Z,69.00
2019-03-19T08:48:18.182Z,69.10
2019-03-19T08:50:44.962Z,69.20
2019-03-19T08:53:11.398Z,68.70
2019-03-19T08:55:37.847Z,67.60
2019-03-19T08:58:04.456Z,67.20
2019-03-19T09:00:31.099Z,68.10
2019-03-19T09:02:59.777Z,66.10
2019-03-19T09:05:26.248Z,64.50
2019-03-19T09:07:52.883Z,64.30
2019-03-19T09:10:19.916Z,63.80
2019-03-19T09:12:48.482Z,63.20
2019-03-19T09:15:16.445Z,62.60
2019-03-19T09:17:43.070Z,61.80
2019-03-19T09:20:15.295Z,63.30
2019-03-19T09:22:41.714Z,61.20
2019-03-19T09:25:09.716Z,61.40
2019-03-19T09:27:36.267Z,60.30
2019-03-19T09:30:09.443Z,60.10
2019-03-19T09:32:37.037Z,59.70
2019-03-19T09:35:04.767Z,59.80
2019-03-19T09:37:31.487Z,58.90
2019-03-19T09:39:58.160Z,58.50
2019-03-19T09:42:24.742Z,57.50
2019-03-19T09:44:58.381Z,57.80
2019-03-19T09:47:19.735Z,57.10
2019-03-19T09:49:46.248Z,57.40
2019-03-19T09:52:12.882Z,57.70
2019-03-19T09:54:40.077Z,57.10
2019-03-19T09:57:06.700Z,55.90
2019-03-19T09:59:33.353Z,55.30
2019-03-19T10:01:59.969Z,54.90
2019-03-19T10:04:26.495Z,54.80
2019-03-19T10:06:52.923Z,53.90
2019-03-19T10:09:19.455Z,53.70
2019-03-19T10:11:46.140Z,55.10
2019-03-19T10:14:12.674Z,56.10
2019-03-19T10:16:39.303Z,55.20
2019-03-19T10:19:06.355Z,54.90
2019-03-19T10:21:33.175Z,53.00
2019-03-19T10:23:59.585Z,51.80
2019-03-19T10:26:26.150Z,52.20
2019-03-19T10:28:52.861Z,48.70
2019-03-19T10:31:19.479Z,48.50
2019-03-19T10:33:46.240Z,48.60
2019-03-19T10:36:13.213Z,48.60
2019-03-19T10:38:39.746Z,49.70
2019-03-19T10:41:06.226Z,49.60
2019-03-19T10:43:32.648Z,48.70
2019-03-19T10:45:59.191Z,47.60
2019-03-19T10:48:25.976Z,47.60
2019-03-19T10:50:52.612Z,48.50
2019-03-19T10:53:19.233Z,48.90
2019-03-19T10:55:47.593Z,49.00
2019-03-19T10:58:15.411Z,47.30
2019-03-19T11:00:43.832Z,46.60
2019-03-19T11:03:12.372Z,46.60
2019-03-19T11:05:39.206Z,46.60
2019-03-19T11:08:05.711Z,47.00
2019-03-19T11:10:32.716Z,47.90
2019-03-19T11:12:59.306Z,48.70
2019-03-19T11:15:27.187Z,47.60
2019-03-19T11:17:53.908Z,44.60
2019-03-19T11:20:20.863Z,45.10
2019-03-19T11:22:47.679Z,45.70
2019-03-19T11:25:19.820Z,44.90
2019-03-19T11:27:48.392Z,43.90
2019-03-19T11:30:20.897Z,45.50
2019-03-19T11:32:47.521Z,46.80
2019-03-19T11:35:14.280Z,45.90
2019-03-19T11:37:40.938Z,47.10
2019-03-19T11:40:15.396Z,44.90
2019-03-19T11:42:42.120Z,45.20
2019-03-19T11:45:11.743Z,47.30
2019-03-19T11:47:38.363Z,47.00
2019-03-19T11:50:11.421Z,47.60
2019-03-19T11:52:40.168Z,49.10
2019-03-19T11:55:11.443Z,49.80
2019-03-19T11:57:38.126Z,49.30
2019-03-19T12:00:11.451Z,48.90
2019-03-19T12:02:36.863Z,50.00
2019-03-19T12:05:06.334Z,51.80
2019-03-19T12:07:32.732Z,51.80
2019-03-19T12:09:59.351Z,51.80
2019-03-19T12:12:26.034Z,51.10
2019-03-19T12:14:52.438Z,50.50
2019-03-19T12:17:18.846Z,50.00
2019-03-19T12:19:45.484Z,47.40
2019-03-19T12:22:12.031Z,46.10
2019-03-19T12:24:38.648Z,44.80
2019-03-19T12:27:05.274Z,45.70
2019-03-19T12:29:31.779Z,46.10
2019-03-19T12:31:58.451Z,45.70
2019-03-19T12:34:25.027Z,47.60
2019-03-19T12:36:51.697Z,48.00
2019-03-19T12:39:18.168Z,48.60
2019-03-19T12:41:44.681Z,49.00
2019-03-19T12:44:11.340Z,50.10
2019-03-19T12:46:37.967Z,50.90
2019-03-19T12:49:04.687Z,49.20
2019-03-19T12:51:31.341Z,47.60
2019-03-19T12:53:57.751Z,48.30
2019-03-19T12:56:26.146Z,48.80
2019-03-19T12:58:52.737Z,49.50
2019-03-19T13:01:19.382Z,51.50
2019-03-19T13:03:46.417Z,54.60
2019-03-19T13:06:12.934Z,58.00
2019-03-19T13:08:39.455Z,62.10
2019-03-19T13:11:06.128Z,65.00
2019-03-19T13:13:32.651Z,66.40
2019-03-19T13:15:59.584Z,67.60
2019-03-19T13:18:26.064Z,67.40
2019-03-19T13:20:53.613Z,68.00
2019-03-19T13:23:20.506Z,67.60
2019-03-19T13:25:46.974Z,66.70
2019-03-19T13:28:13.992Z,63.90
2019-03-19T13:30:45.263Z,62.90
2019-03-19T13:33:09.000Z,61.20
2019-03-19T13:35:35.636Z,61.90
2019-03-19T13:38:02.275Z,57.60
2019-03-19T13:40:28.907Z,58.40
2019-03-19T13:42:55.587Z,56.30
2019-03-19T13:45:23.256Z,57.90
2019-03-19T13:47:49.880Z,58.10
2019-03-19T13:50:17.616Z,58.50
2019-03-19T13:52:44.454Z,57.80
2019-03-19T13:55:13.675Z,57.30
2019-03-19T13:57:40.306Z,57.40
2019-03-19T14:00:13.668Z,57.20
2019-03-19T14:02:40.292Z,55.60
2019-03-19T14:05:09.303Z,56.30
2019-03-19T14:07:35.932Z,56.00
2019-03-19T14:10:08.115Z,55.40
2019-03-19T14:12:34.822Z,55.40
2019-03-19T14:15:01.671Z,55.90
2019-03-19T14:17:28.558Z,56.60
2019-03-19T14:19:55.236Z,56.60
2019-03-19T14:22:21.766Z,57.80
2019-03-19T14:24:48.335Z,57.00
2019-03-19T14:27:14.916Z,57.70
2019-03-19T14:29:41.547Z,58.30
2019-03-19T14:32:08.081Z,59.10
2019-03-19T14:34:34.672Z,58.90
2019-03-19T14:37:01.585Z,57.50
2019-03-19T14:39:28.103Z,57.40
2019-03-19T14:41:54.793Z,57.20
2019-03-19T14:44:21.999Z,56.90
2019-03-19T14:46:48.964Z,57.10
2019-03-19T14:49:15.500Z,57.30
2019-03-19T14:51:42.078Z,56.80
2019-03-19T14:54:10.559Z,56.60
2019-03-19T14:56:37.099Z,56.50
2019-03-19T14:59:03.658Z,56.50
2019-03-19T15:01:30.291Z,56.00
2019-03-19T15:03:56.803Z,56.00
2019-03-19T15:06:24.116Z,56.10
2019-03-19T15:08:50.540Z,56.40
2019-03-19T15:11:17.161Z,56.40
2019-03-19T15:13:43.766Z,55.90
2019-03-19T15:16:10.402Z,56.10
2019-03-19T15:18:36.916Z,56.10
2019-03-19T15:21:04.085Z,56.00
2019-03-19T15:23:30.713Z,55.30
2019-03-19T15:25:59.267Z,54.30
2019-03-19T15:28:25.673Z,54.20
2019-03-19T15:30:52.526Z,54.80
2019-03-19T15:33:38.918Z,54.20
2019-03-19T15:36:05.869Z,54.80
2019-03-19T15:38:32.524Z,55.00
2019-03-19T15:41:00.956Z,55.60
2019-03-19T15:43:27.500Z,56.10
2019-03-19T15:45:54.282Z,57.00
2019-03-19T15:48:20.761Z,57.50
2019-03-19T15:50:47.315Z,58.10
2019-03-19T15:53:13.858Z,58.40
2019-03-19T15:55:40.725Z,59.50
2019-03-19T15:58:07.228Z,59.70
2019-03-19T16:00:34.015Z,60.60
2019-03-19T16:03:00.531Z,60.80
2019-03-19T16:05:27.340Z,61.20
2019-03-19T16:07:53.934Z,61.00
2019-03-19T16:10:21.556Z,61.30
2019-03-19T16:12:48.084Z,61.80
2019-03-19T16:15:16.153Z,61.80
2019-03-19T16:17:42.695Z,62.10
2019-03-19T16:20:14.523Z,62.30
2019-03-19T16:22:42.959Z,62.90
2019-03-19T16:25:09.619Z,62.80
2019-03-19T16:27:36.636Z,63.10
2019-03-19T16:30:16.541Z,62.90
2019-03-19T16:32:44.671Z,63.10
2019-03-19T16:35:11.811Z,63.70
2019-03-19T16:37:38.445Z,63.50
2019-03-19T16:40:22.471Z,63.20
2019-03-19T16:42:49.483Z,63.20
2019-03-19T16:45:17.965Z,62.80
2019-03-19T16:47:44.717Z,62.50
2019-03-19T16:50:16.088Z,62.90
2019-03-19T16:52:43.043Z,63.10
2019-03-19T16:55:12.139Z,62.50
2019-03-19T16:57:38.600Z,63.10
2019-03-19T17:00:11.315Z,64.00
2019-03-19T17:02:37.784Z,65.00
2019-03-19T17:05:07.293Z,65.60
2019-03-19T17:07:34.052Z,65.80
2019-03-19T17:10:00.723Z,65.70
2019-03-19T17:12:27.628Z,66.80
2019-03-19T17:14:54.185Z,68.60
2019-03-19T17:17:20.874Z,70.20
2019-03-19T17:19:47.402Z,70.60
2019-03-19T17:22:14.047Z,71.70
2019-03-19T17:24:40.672Z,72.50
2019-03-19T17:27:07.160Z,73.30
2019-03-19T17:29:33.788Z,74.10
2019-03-19T17:32:00.228Z,74.30
2019-03-19T17:34:26.946Z,74.60
2019-03-19T17:36:53.641Z,74.80
2019-03-19T17:39:20.285Z,75.00
2019-03-19T17:41:46.839Z,75.60
2019-03-19T17:44:13.785Z,76.10
2019-03-19T17:46:40.258Z,76.50
2019-03-19T17:49:06.890Z,77.00
2019-03-19T17:51:33.499Z,77.30
2019-03-19T17:53:59.972Z,77.70
2019-03-19T17:56:26.492Z,78.10
2019-03-19T17:58:53.111Z,78.30
2019-03-19T18:01:19.659Z,78.70
2019-03-19T18:03:46.193Z,78.40
2019-03-19T18:06:12.640Z,78.30
2019-03-19T18:08:39.438Z,78.10
2019-03-19T18:11:06.006Z,78.30
2019-03-19T18:13:32.664Z,78.30
2019-03-19T18:16:19.197Z,78.30
2019-03-19T18:18:47.254Z,78.40
2019-03-19T18:21:15.054Z,78.60
2019-03-19T18:23:41.663Z,78.90
2019-03-19T18:26:08.344Z,79.00
2019-03-19T18:28:34.959Z,79.00
2019-03-19T18:31:01.815Z,79.30
2019-03-19T18:33:28.785Z,79.30
2019-03-19T18:35:56.563Z,79.20
2019-03-19T18:38:23.463Z,79.20
2019-03-19T18:40:50.101Z,79.20
2019-03-19T18:43:16.703Z,79.10
2019-03-19T18:45:43.227Z,79.00
2019-03-19T18:48:09.907Z,79.20
2019-03-19T18:50:36.621Z,79.30
2019-03-19T18:53:03.132Z,79.10
2019-03-19T18:55:29.586Z,78.70
2019-03-19T18:57:56.104Z,78.50
2019-03-19T19:00:23.220Z,78.40
2019-03-19T19:02:50.984Z,78.20
2019-03-19T19:05:24.297Z,77.90
2019-03-19T19:07:50.904Z,77.90
2019-03-19T19:10:20.914Z,77.40
2019-03-19T19:12:47.146Z,77.00
2019-03-19T19:15:18.852Z,76.80
2019-03-19T19:17:45.427Z,76.60
2019-03-19T19:20:14.180Z,76.50
2019-03-19T19:22:40.729Z,76.50
2019-03-19T19:25:10.170Z,76.40
2019-03-19T19:27:36.727Z,76.50
2019-03-19T19:30:07.318Z,76.60
2019-03-19T19:32:33.974Z,76.80
2019-03-19T19:35:00.665Z,76.80
2019-03-19T19:37:27.212Z,76.80
2019-03-19T19:39:53.731Z,76.80
2019-03-19T19:42:20.260Z,76.90
2019-03-19T19:44:48.112Z,76.90
2019-03-19T19:47:15.830Z,77.00
2019-03-19T19:49:42.596Z,77.10
2019-03-19T19:52:09.332Z,77.10
2019-03-19T19:54:35.886Z,77.40
2019-03-19T19:57:02.688Z,77.40
2019-03-19T19:59:29.240Z,77.80
2019-03-19T20:01:55.889Z,78.10
2019-03-19T20:04:22.359Z,78.60
2019-03-19T20:06:51.610Z,78.70
2019-03-19T20:09:18.385Z,79.10
2019-03-19T20:11:45.690Z,79.30
2019-03-19T20:14:14.331Z,79.70
2019-03-19T20:16:40.618Z,80.20
2019-03-19T20:19:07.237Z,80.60
2019-03-19T20:21:33.785Z,80.90
2019-03-19T20:24:00.217Z,81.20
2019-03-19T20:26:27.056Z,81.60
2019-03-19T20:28:53.605Z,81.70
2019-03-19T20:31:20.030Z,82.10
2019-03-19T20:33:47.926Z,82.20
2019-03-19T20:36:15.965Z,82.50
2019-03-19T20:38:44.272Z,82.80
2019-03-19T20:41:10.907Z,82.90
2019-03-19T20:43:37.444Z,83.10
2019-03-19T20:46:05.208Z,83.30
2019-03-19T20:48:35.802Z,83.50
2019-03-19T20:51:00.691Z,83.80
2019-03-19T20:53:27.328Z,83.90
2019-03-19T20:55:53.799Z,84.20
2019-03-19T20:58:20.571Z,84.30
2019-03-19T21:00:48.215Z,84.40
2019-03-19T21:03:14.603Z,84.60
2019-03-19T21:05:41.501Z,84.80
2019-03-19T21:08:08.279Z,85.10
2019-03-19T21:10:36.892Z,85.20
2019-03-19T21:13:03.436Z,85.30
2019-03-19T21:15:30.234Z,85.80
2019-03-19T21:17:57.161Z,86.10
2019-03-19T21:20:24.317Z,86.20
2019-03-19T21:22:51.286Z,86.40
2019-03-19T21:25:18.242Z,86.30
2019-03-19T21:27:44.852Z,86.40
2019-03-19T21:30:13.858Z,86.70
2019-03-19T21:32:40.582Z,86.80
2019-03-19T21:35:09.945Z,86.90
2019-03-19T21:37:36.500Z,87.20
2019-03-19T21:40:12.199Z,87.70
2019-03-19T21:42:38.710Z,88.00
2019-03-19T21:45:08.337Z,88.20
2019-03-19T21:47:35.782Z,88.50
2019-03-19T21:50:02.983Z,88.50
2019-03-19T21:52:29.406Z,88.40
2019-03-19T21:54:56.302Z,88.30
2019-03-19T21:57:23.006Z,88.10
2019-03-19T21:59:49.963Z,88.80
2019-03-19T22:02:18.355Z,89.00
2019-03-19T22:04:44.793Z,89.40
2019-03-19T22:07:11.357Z,89.40
2019-03-19T22:09:37.787Z,89.80
2019-03-19T22:12:04.451Z,90.00
2019-03-19T22:14:30.976Z,90.10
2019-03-19T22:16:57.475Z,90.10
2019-03-19T22:19:23.954Z,90.20
2019-03-19T22:21:51.820Z,90.20
2019-03-19T22:24:20.153Z,90.10
2019-03-19T22:26:46.696Z,90.00
2019-03-19T22:29:13.241Z,90.00
2019-03-19T22:31:59.560Z,90.00
2019-03-19T22:34:26.309Z,90.40
2019-03-19T22:36:52.806Z,90.10
2019-03-19T22:39:19.364Z,90.00
2019-03-19T22:41:46.273Z,90.00
2019-03-19T22:44:12.829Z,90.00
2019-03-19T22:46:39.517Z,89.90
2019-03-19T22:49:05.979Z,90.00
2019-03-19T22:51:32.670Z,90.00
2019-03-19T22:54:01.214Z,90.00
2019-03-19T22:56:27.957Z,90.10
2019-03-19T22:58:54.832Z,90.20
2019-03-19T23:01:21.456Z,90.30
2019-03-19T23:03:48.455Z,90.40
2019-03-19T23:06:15.125Z,90.30
2019-03-19T23:08:41.527Z,90.20
2019-03-19T23:11:27.929Z,90.10
2019-03-19T23:13:54.472Z,90.10
2019-03-19T23:16:21.570Z,90.20
2019-03-19T23:18:48.085Z,90.30
2019-03-19T23:21:14.612Z,90.30
2019-03-19T23:23:41.178Z,90.30
2019-03-19T23:26:08.217Z,90.40
2019-03-19T23:28:35.148Z,90.50
2019-03-19T23:31:01.669Z,90.40
2019-03-19T23:33:28.101Z,90.30
2019-03-19T23:35:54.623Z,90.20
2019-03-19T23:38:21.303Z,90.40
2019-03-19T23:40:47.871Z,90.50
2019-03-19T23:43:14.627Z,90.40
2019-03-19T23:45:41.143Z,90.40
2019-03-19T23:48:07.717Z,90.20
2019-03-19T23:50:34.854Z,90.10
2019-03-19T23:53:01.375Z,90.20
2019-03-19T23:55:28.027Z,90.30
2019-03-19T23:57:54.434Z,90.60
